createdAt,value
2018-11-10T00:00:44.073Z,97887.37
2018-11-10T00:03:12.659Z,97884.20
2018-11-10T00:05:41.162Z,97880.63
2018-11-10T00:08:09.772Z,97872.88
2018-11-10T00:10:38.972Z,97871.77
2018-11-10T00:13:07.542Z,97877.69
2018-11-10T00:15:36.058Z,97870.02
2018-11-10T00:18:04.737Z,97870.16
2018-11-10T00:20:33.372Z,97869.34
2018-11-10T00:23:02.126Z,97873.05
2018-11-10T00:25:30.643Z,97868.03
2018-11-10T00:27:59.258Z,97866.76
2018-11-10T00:30:27.881Z,97871.12
2018-11-10T00:32:56.630Z,97872.08
2018-11-10T00:35:25.570Z,97876.08
2018-11-10T00:37:54.096Z,97872.67
2018-11-10T00:40:23.207Z,97870.30
2018-11-10T00:42:51.750Z,97870.83
2018-11-10T00:45:20.366Z,97868.45
2018-11-10T00:47:48.945Z,97867.41
2018-11-10T00:50:17.518Z,97875.20
2018-11-10T00:52:46.130Z,97870.75
2018-11-10T00:55:14.614Z,97873.86
2018-11-10T00:57:43.164Z,97867.58
2018-11-10T01:00:12.898Z,97869.05
2018-11-10T01:02:42.498Z,97870.47
2018-11-10T01:05:11.209Z,97865.28
2018-11-10T01:07:40.247Z,97870.67
2018-11-10T01:10:10.976Z,97879.73
2018-11-10T01:12:39.546Z,97883.09
2018-11-10T01:15:10.937Z,97880.22
2018-11-10T01:17:39.618Z,97873.12
2018-11-10T01:20:09.502Z,97866.98
2018-11-10T01:22:38.375Z,97864.77
2018-11-10T01:25:07.886Z,97864.46
2018-11-10T01:27:36.497Z,97862.56
2018-11-10T01:30:05.492Z,97852.43
2018-11-10T01:32:34.245Z,97851.31
2018-11-10T01:35:02.795Z,97846.81
2018-11-10T01:37:31.582Z,97847.33
2018-11-10T01:40:00.141Z,97845.69
2018-11-10T01:42:28.635Z,97848.15
2018-11-10T01:44:57.214Z,97836.67
2018-11-10T01:47:25.705Z,97834.89
2018-11-10T01:49:54.463Z,97833.36
2018-11-10T01:52:23.027Z,97836.25
2018-11-10T01:54:51.908Z,97831.58
2018-11-10T01:57:20.446Z,97831.44
2018-11-10T01:59:49.017Z,97833.22
2018-11-10T02:02:17.631Z,97829.22
2018-11-10T02:04:46.520Z,97828.83
2018-11-10T02:07:15.396Z,97827.08
2018-11-10T02:09:44.001Z,97821.66
2018-11-10T02:12:12.584Z,97825.05
2018-11-10T02:14:41.157Z,97828.03
2018-11-10T02:17:09.910Z,97825.66
2018-11-10T02:19:38.559Z,97828.33
2018-11-10T02:22:07.086Z,97825.08
2018-11-10T02:24:35.649Z,97823.98
2018-11-10T02:27:07.742Z,97828.47
2018-11-10T02:29:36.322Z,97821.98
2018-11-10T02:32:04.863Z,97821.01
2018-11-10T02:34:33.476Z,97820.56
2018-11-10T02:37:01.978Z,97819.60
2018-11-10T02:39:30.526Z,97824.56
2018-11-10T02:41:59.398Z,97832.55
2018-11-10T02:44:27.973Z,97826.55
2018-11-10T02:46:56.550Z,97819.63
2018-11-10T02:49:25.098Z,97821.55
2018-11-10T02:51:53.612Z,97824.77
2018-11-10T02:54:22.311Z,97825.08
2018-11-10T02:56:52.670Z,97816.08
2018-11-10T02:59:21.269Z,97815.48
2018-11-10T03:01:49.793Z,97820.87
2018-11-10T03:04:18.413Z,97818.72
2018-11-10T03:06:46.921Z,97817.52
2018-11-10T03:09:15.442Z,97817.23
2018-11-10T03:11:43.995Z,97820.38
2018-11-10T03:14:12.607Z,97821.09
2018-11-10T03:16:41.154Z,97816.95
2018-11-10T03:19:10.245Z,97815.08
2018-11-10T03:21:39.046Z,97812.73
2018-11-10T03:24:07.591Z,97808.31
2018-11-10T03:26:36.978Z,97808.23
2018-11-10T03:29:05.969Z,97800.04
2018-11-10T03:31:34.500Z,97800.03
2018-11-10T03:34:03.078Z,97798.47
2018-11-10T03:36:31.669Z,97797.23
2018-11-10T03:39:00.180Z,97800.27
2018-11-10T03:41:28.800Z,97797.28
2018-11-10T03:43:57.318Z,97788.80
2018-11-10T03:46:26.572Z,97792.36
2018-11-10T03:48:55.324Z,97786.58
2018-11-10T03:51:23.845Z,97783.41
2018-11-10T03:53:52.376Z,97784.66
2018-11-10T03:56:21.096Z,97790.20
2018-11-10T03:58:50.081Z,97790.71
2018-11-10T04:01:18.635Z,97783.19
2018-11-10T04:03:47.151Z,97783.42
2018-11-10T04:06:15.721Z,97775.22
2018-11-10T04:08:44.264Z,97778.98
2018-11-10T04:11:12.824Z,97779.06
2018-11-10T04:13:41.358Z,97778.55
2018-11-10T04:16:10.060Z,97775.55
2018-11-10T04:18:39.491Z,97775.50
2018-11-10T04:21:08.127Z,97778.59
2018-11-10T04:23:36.654Z,97772.77
2018-11-10T04:26:05.404Z,97777.44
2018-11-10T04:28:33.920Z,97776.11
2018-11-10T04:31:03.310Z,97772.77
2018-11-10T04:33:31.883Z,97765.47
2018-11-10T04:36:00.454Z,97765.52
2018-11-10T04:38:29.011Z,97767.49
2018-11-10T04:40:57.619Z,97766.31
2018-11-10T04:43:26.198Z,97765.31
2018-11-10T04:45:54.790Z,97763.75
2018-11-10T04:48:23.707Z,97761.31
2018-11-10T04:50:52.264Z,97761.03
2018-11-10T04:53:20.783Z,97762.73
2018-11-10T04:55:49.334Z,97767.84
2018-11-10T04:58:17.853Z,97760.95
2018-11-10T05:00:46.409Z,97767.44
2018-11-10T05:03:14.929Z,97765.91
2018-11-10T05:05:44.089Z,97764.86
2018-11-10T05:08:12.617Z,97762.43
2018-11-10T05:10:41.186Z,97764.86
2018-11-10T05:13:09.710Z,97765.55
2018-11-10T05:15:38.281Z,97762.34
2018-11-10T05:18:07.274Z,97758.89
2018-11-10T05:20:35.911Z,97766.56
2018-11-10T05:23:04.530Z,97762.66
2018-11-10T05:25:33.039Z,97765.55
2018-11-10T05:28:01.613Z,97762.66
2018-11-10T05:30:30.142Z,97761.84
2018-11-10T05:32:58.717Z,97767.07
2018-11-10T05:35:27.282Z,97763.30
2018-11-10T05:37:55.837Z,97758.50
2018-11-10T05:40:24.356Z,97758.63
2018-11-10T05:42:52.919Z,97751.87
2018-11-10T05:45:21.498Z,97761.70
2018-11-10T05:47:50.075Z,97765.31
2018-11-10T05:50:18.635Z,97764.12
2018-11-10T05:52:47.189Z,97765.59
2018-11-10T05:55:15.717Z,97769.95
2018-11-10T05:57:45.317Z,97772.56
2018-11-10T06:00:14.250Z,97774.40
2018-11-10T06:02:44.144Z,97779.72
2018-11-10T06:05:13.264Z,97782.44
2018-11-10T06:07:42.059Z,97779.77
2018-11-10T06:10:12.008Z,97776.37
2018-11-10T06:12:40.763Z,97773.86
2018-11-10T06:15:09.849Z,97779.55
2018-11-10T06:17:38.713Z,97778.67
2018-11-10T06:20:08.990Z,97781.47
2018-11-10T06:22:37.522Z,97775.41
2018-11-10T06:25:07.585Z,97778.02
2018-11-10T06:27:36.126Z,97780.59
2018-11-10T06:30:05.469Z,97778.76
2018-11-10T06:32:34.077Z,97776.15
2018-11-10T06:35:02.559Z,97778.30
2018-11-10T06:37:31.088Z,97783.03
2018-11-10T06:39:59.870Z,97781.92
2018-11-10T06:42:28.409Z,97778.02
2018-11-10T06:44:56.923Z,97786.83
2018-11-10T06:47:25.457Z,97775.41
2018-11-10T06:49:53.967Z,97778.62
2018-11-10T06:52:22.531Z,97777.66
2018-11-10T06:54:51.091Z,97774.77
2018-11-10T06:57:19.608Z,97777.94
2018-11-10T06:59:48.124Z,97775.45
2018-11-10T07:02:16.677Z,97774.40
2018-11-10T07:04:45.594Z,97774.03
2018-11-10T07:07:14.087Z,97771.59
2018-11-10T07:09:42.654Z,97767.30
2018-11-10T07:12:11.157Z,97768.57
2018-11-10T07:14:39.662Z,97766.42
2018-11-10T07:17:11.305Z,97759.86
2018-11-10T07:19:39.838Z,97762.80
2018-11-10T07:22:08.353Z,97758.53
2018-11-10T07:24:36.899Z,97761.02
2018-11-10T07:27:05.854Z,97757.77
2018-11-10T07:29:34.442Z,97756.23
2018-11-10T07:32:03.031Z,97756.23
2018-11-10T07:34:31.814Z,97763.77
2018-11-10T07:37:00.333Z,97762.26
2018-11-10T07:39:28.891Z,97763.25
2018-11-10T07:41:57.391Z,97764.86
2018-11-10T07:44:25.886Z,97759.13
2018-11-10T07:46:54.390Z,97760.73
2018-11-10T07:49:22.971Z,97750.97
2018-11-10T07:51:51.432Z,97753.41
2018-11-10T07:54:19.979Z,97758.07
2018-11-10T07:56:48.506Z,97759.03
2018-11-10T07:59:17.041Z,97753.48
2018-11-10T08:01:45.570Z,97741.02
2018-11-10T08:04:14.163Z,97742.70
2018-11-10T08:06:42.675Z,97749.50
2018-11-10T08:09:11.567Z,97757.48
2018-11-10T08:11:40.378Z,97761.52
2018-11-10T08:14:08.994Z,97760.64
2018-11-10T08:16:37.809Z,97765.41
2018-11-10T08:19:07.036Z,97760.77
2018-11-10T08:21:35.595Z,97759.89
2018-11-10T08:24:04.175Z,97757.38
2018-11-10T08:26:32.659Z,97758.63
2018-11-10T08:29:01.218Z,97761.23
2018-11-10T08:31:29.722Z,97761.15
2018-11-10T08:33:58.267Z,97757.02
2018-11-10T08:36:26.758Z,97749.08
2018-11-10T08:38:55.318Z,97752.20
2018-11-10T08:41:23.836Z,97747.92
2018-11-10T08:43:52.413Z,97746.85
2018-11-10T08:46:20.928Z,97752.30
2018-11-10T08:48:49.474Z,97751.92
2018-11-10T08:51:17.963Z,97752.80
2018-11-10T08:53:46.485Z,97759.53
2018-11-10T08:56:14.965Z,97758.20
2018-11-10T08:58:43.514Z,97765.25
2018-11-10T09:01:13.369Z,97764.49
2018-11-10T09:03:42.013Z,97769.34
2018-11-10T09:09:04.138Z,97764.58
2018-11-10T09:11:32.646Z,97761.52
2018-11-10T09:14:01.207Z,97761.64
2018-11-10T09:16:29.702Z,97765.34
2018-11-10T09:18:58.269Z,97752.63
2018-11-10T09:21:26.967Z,97752.81
2018-11-10T09:23:55.500Z,97758.63
2018-11-10T09:26:24.581Z,97755.90
2018-11-10T09:28:53.084Z,97753.05
2018-11-10T09:31:21.613Z,97756.30
2018-11-10T09:33:50.154Z,97754.36
2018-11-10T09:36:18.696Z,97758.63
2018-11-10T09:38:47.236Z,97761.48
2018-11-10T09:41:15.745Z,97753.77
2018-11-10T09:43:44.300Z,97746.50
2018-11-10T09:46:13.157Z,97754.45
2018-11-10T09:48:41.737Z,97747.95
2018-11-10T09:51:10.278Z,97749.79
2018-11-10T09:53:38.757Z,97744.11
2018-11-10T09:56:07.310Z,97743.13
2018-11-10T09:58:35.839Z,97754.53
2018-11-10T10:01:04.480Z,97738.73
2018-11-10T10:03:32.953Z,97749.78
2018-11-10T10:06:01.491Z,97740.18
2018-11-10T10:08:30.040Z,97740.53
2018-11-10T10:10:58.614Z,97734.69
2018-11-10T10:13:27.116Z,97731.23
2018-11-10T10:15:55.653Z,97727.77
2018-11-10T10:18:24.164Z,97723.48
2018-11-10T10:20:52.748Z,97728.21
2018-11-10T10:23:21.393Z,97722.45
2018-11-10T10:25:49.942Z,97714.81
2018-11-10T10:28:18.536Z,97708.61
2018-11-10T10:30:47.150Z,97703.02
2018-11-10T10:33:15.708Z,97704.11
2018-11-10T10:35:44.281Z,97700.20
2018-11-10T10:38:12.823Z,97694.53
2018-11-10T10:40:41.437Z,97693.83
2018-11-10T10:43:10.069Z,97695.38
2018-11-10T10:45:38.608Z,97697.91
2018-11-10T10:48:07.210Z,97692.03
2018-11-10T10:50:35.811Z,97690.44
2018-11-10T10:53:04.381Z,97676.87
2018-11-10T10:55:32.973Z,97677.92
2018-11-10T10:58:01.526Z,97674.38
2018-11-10T11:00:35.184Z,97672.53
2018-11-10T11:04:11.979Z,97666.10
2018-11-10T11:06:40.510Z,97666.75
2018-11-10T11:09:09.419Z,97673.75
2018-11-10T11:11:37.866Z,97679.00
2018-11-10T11:14:06.453Z,97674.95
2018-11-10T11:16:34.997Z,97675.41
2018-11-10T11:19:03.541Z,97675.91
2018-11-10T11:21:32.066Z,97678.13
2018-11-10T11:24:00.545Z,97675.67
2018-11-10T11:26:29.174Z,97677.62
2018-11-10T11:28:57.667Z,97677.68
2018-11-10T11:31:26.188Z,97674.75
2018-11-10T11:33:54.808Z,97669.14
2018-11-10T11:36:23.270Z,97667.13
2018-11-10T11:38:51.779Z,97649.67
2018-11-10T11:41:20.412Z,97652.73
2018-11-10T11:43:49.113Z,97645.58
2018-11-10T11:46:17.716Z,97654.37
2018-11-10T11:48:46.358Z,97656.80
2018-11-10T11:51:15.024Z,97655.31
2018-11-10T11:53:43.550Z,97656.64
2018-11-10T11:56:12.175Z,97652.59
2018-11-10T11:58:40.652Z,97654.27
2018-11-10T12:01:09.266Z,97654.88
2018-11-10T12:03:37.796Z,97652.28
2018-11-10T12:06:06.351Z,97646.58
2018-11-10T12:08:34.838Z,97643.26
2018-11-10T12:11:03.380Z,97641.94
2018-11-10T12:13:31.849Z,97644.08
2018-11-10T12:16:00.330Z,97644.77
2018-11-10T12:18:28.812Z,97645.55
2018-11-10T12:20:57.357Z,97641.48
2018-11-10T12:23:25.837Z,97642.81
2018-11-10T12:25:54.353Z,97638.69
2018-11-10T12:28:22.847Z,97633.05
2018-11-10T12:30:51.414Z,97630.72
2018-11-10T12:33:19.917Z,97628.83
2018-11-10T12:35:48.437Z,97629.08
2018-11-10T12:39:41.301Z,97622.48
2018-11-10T12:42:09.838Z,97628.50
2018-11-10T12:44:40.895Z,97626.65
2018-11-10T12:47:09.439Z,97620.41
2018-11-10T12:49:38.019Z,97618.48
2018-11-10T12:52:06.790Z,97613.24
2018-11-10T12:54:35.306Z,97614.91
2018-11-10T12:57:03.886Z,97607.87
2018-11-10T12:59:32.577Z,97614.55
2018-11-10T13:02:01.086Z,97609.33
2018-11-10T13:04:29.641Z,97607.38
2018-11-10T13:06:58.224Z,97601.72
2018-11-10T13:09:26.702Z,97605.41
2018-11-10T13:11:55.319Z,97601.53
2018-11-10T13:14:23.793Z,97608.91
2018-11-10T13:16:52.304Z,97605.55
2018-11-10T13:19:20.793Z,97601.72
2018-11-10T13:21:49.320Z,97605.41
2018-11-10T13:24:17.931Z,97599.30
2018-11-10T13:26:46.361Z,97602.09
2018-11-10T13:29:14.964Z,97604.63
2018-11-10T13:31:43.620Z,97609.63
2018-11-10T13:34:11.979Z,97609.72
2018-11-10T13:36:40.539Z,97611.63
2018-11-10T13:39:09.876Z,97612.30
2018-11-10T13:41:38.386Z,97610.42
2018-11-10T13:44:06.935Z,97611.67
2018-11-10T13:46:35.506Z,97610.00
2018-11-10T13:49:04.081Z,97608.30
2018-11-10T13:51:32.729Z,97611.73
2018-11-10T13:54:01.130Z,97619.09
2018-11-10T13:56:29.646Z,97615.66
2018-11-10T13:58:58.146Z,97625.67
2018-11-10T14:01:26.695Z,97622.76
2018-11-10T14:03:55.200Z,97617.64
2018-11-10T14:06:24.002Z,97627.09
2018-11-10T14:08:52.497Z,97619.40
2018-11-10T14:11:21.009Z,97621.58
2018-11-10T14:13:49.516Z,97618.42
2018-11-10T14:16:18.038Z,97615.76
2018-11-10T14:18:46.525Z,97619.88
2018-11-10T14:21:15.051Z,97617.30
2018-11-10T14:23:43.578Z,97617.42
2018-11-10T14:26:12.155Z,97629.54
2018-11-10T14:28:40.718Z,97625.88
2018-11-10T14:31:09.262Z,97617.72
2018-11-10T14:33:37.836Z,97617.75
2018-11-10T14:36:06.418Z,97615.39
2018-11-10T14:38:34.916Z,97618.09
2018-11-10T14:41:03.469Z,97619.70
2018-11-10T14:43:32.105Z,97620.91
2018-11-10T14:46:00.654Z,97620.56
2018-11-10T14:48:29.186Z,97628.89
2018-11-10T14:50:57.785Z,97634.62
2018-11-10T14:53:26.407Z,97631.17
2018-11-10T14:55:54.991Z,97628.97
2018-11-10T14:58:23.578Z,97631.27
2018-11-10T15:00:52.079Z,97631.86
2018-11-10T15:03:20.730Z,97627.64
2018-11-10T15:05:49.270Z,97627.80
2018-11-10T15:08:17.790Z,97628.04
2018-11-10T15:10:46.269Z,97621.97
2018-11-10T15:13:14.798Z,97623.45
2018-11-10T15:15:43.299Z,97627.06
2018-11-10T15:18:11.906Z,97627.13
2018-11-10T15:20:40.324Z,97625.45
2018-11-10T15:23:08.930Z,97629.81
2018-11-10T15:25:37.446Z,97633.54
2018-11-10T15:28:05.977Z,97636.15
2018-11-10T15:30:34.477Z,97631.75
2018-11-10T15:33:03.007Z,97629.41
2018-11-10T15:35:31.487Z,97629.84
2018-11-10T15:38:00.065Z,97625.75
2018-11-10T15:40:28.617Z,97627.62
2018-11-10T15:42:57.186Z,97625.89
2018-11-10T15:45:25.682Z,97622.41
2018-11-10T15:47:54.209Z,97628.14
2018-11-10T15:50:22.716Z,97618.30
2018-11-10T15:52:51.222Z,97612.17
2018-11-10T15:55:19.726Z,97614.69
2018-11-10T15:57:48.226Z,97614.58
2018-11-10T16:00:17.994Z,97609.91
2018-11-10T16:02:46.557Z,97616.05
2018-11-10T16:05:15.567Z,97614.98
2018-11-10T16:07:44.138Z,97608.41
2018-11-10T16:10:12.755Z,97607.89
2018-11-10T16:12:41.356Z,97608.91
2018-11-10T16:15:11.979Z,97609.89
2018-11-10T16:17:40.783Z,97614.19
2018-11-10T16:20:13.050Z,97609.34
2018-11-10T16:22:41.584Z,97614.21
2018-11-10T16:25:11.328Z,97616.41
2018-11-10T16:27:39.876Z,97613.41
2018-11-10T16:30:10.459Z,97618.94
2018-11-10T16:32:39.004Z,97618.20
2018-11-10T16:35:07.922Z,97623.25
2018-11-10T16:37:36.431Z,97628.66
2018-11-10T16:40:07.015Z,97634.05
2018-11-10T16:42:35.513Z,97629.52
2018-11-10T16:45:04.141Z,97636.38
2018-11-10T16:47:32.672Z,97639.31
2018-11-10T16:50:01.379Z,97644.83
2018-11-10T16:52:29.956Z,97651.61
2018-11-10T16:54:58.526Z,97655.91
2018-11-10T16:57:27.058Z,97658.14
2018-11-10T16:59:55.569Z,97655.52
2018-11-10T17:02:24.382Z,97662.84
2018-11-10T17:04:52.981Z,97660.97
2018-11-10T17:07:21.502Z,97664.02
2018-11-10T17:09:50.019Z,97665.32
2018-11-10T17:12:18.523Z,97664.50
2018-11-10T17:14:47.029Z,97668.82
2018-11-10T17:17:15.525Z,97658.81
2018-11-10T17:19:44.063Z,97666.60
2018-11-10T17:22:12.706Z,97663.98
2018-11-10T17:24:41.193Z,97657.98
2018-11-10T17:27:09.721Z,97660.64
2018-11-10T17:29:38.241Z,97659.72
2018-11-10T17:32:06.758Z,97658.84
2018-11-10T17:34:35.304Z,97656.45
2018-11-10T17:37:03.850Z,97653.79
2018-11-10T17:39:32.446Z,97659.66
2018-11-10T17:42:00.989Z,97656.05
2018-11-10T17:44:29.482Z,97654.80
2018-11-10T17:46:58.104Z,97651.23
2018-11-10T17:49:26.686Z,97657.97
2018-11-10T17:51:55.257Z,97657.03
2018-11-10T17:54:23.877Z,97662.44
2018-11-10T17:56:52.387Z,97658.13
2018-11-10T17:59:20.879Z,97652.87
2018-11-10T18:01:49.511Z,97654.25
2018-11-10T18:04:17.950Z,97656.56
2018-11-10T18:06:46.482Z,97658.20
2018-11-10T18:09:14.967Z,97656.64
2018-11-10T18:11:43.516Z,97654.21
2018-11-10T18:14:12.026Z,97656.13
2018-11-10T18:16:40.621Z,97654.21
2018-11-10T18:19:09.298Z,97653.00
2018-11-10T18:21:37.706Z,97649.35
2018-11-10T18:24:06.353Z,97658.37
2018-11-10T18:26:34.864Z,97657.90
2018-11-10T18:29:03.377Z,97655.95
2018-11-10T18:31:31.928Z,97652.42
2018-11-10T18:34:00.401Z,97657.20
2018-11-10T18:36:28.950Z,97658.85
2018-11-10T18:38:57.576Z,97652.00
2018-11-10T18:41:26.109Z,97648.98
2018-11-10T18:43:54.633Z,97646.67
2018-11-10T18:46:23.192Z,97646.28
2018-11-10T18:48:51.733Z,97638.17
2018-11-10T18:51:20.386Z,97637.42
2018-11-10T18:53:48.917Z,97645.69
2018-11-10T18:56:17.529Z,97640.14
2018-11-10T18:58:46.038Z,97634.53
2018-11-10T19:01:14.586Z,97635.05
2018-11-10T19:03:43.319Z,97636.61
2018-11-10T19:06:11.938Z,97634.19
2018-11-10T19:08:40.401Z,97633.13
2018-11-10T19:11:08.963Z,97636.14
2018-11-10T19:13:37.455Z,97638.45
2018-11-10T19:16:06.457Z,97643.73
2018-11-10T19:18:35.649Z,97639.11
2018-11-10T19:21:04.245Z,97638.41
2018-11-10T19:23:32.708Z,97637.98
2018-11-10T19:26:01.513Z,97641.19
2018-11-10T19:28:29.999Z,97653.99
2018-11-10T19:30:58.521Z,97658.38
2018-11-10T19:33:27.216Z,97660.77
2018-11-10T19:35:55.930Z,97663.86
2018-11-10T19:38:24.469Z,97656.41
2018-11-10T19:40:53.189Z,97655.31
2018-11-10T19:43:21.945Z,97659.70
2018-11-10T19:45:50.543Z,97658.02
2018-11-10T19:48:19.029Z,97658.13
2018-11-10T19:50:47.655Z,97663.23
2018-11-10T19:54:45.325Z,97660.65
2018-11-10T19:57:13.860Z,97651.41
2018-11-10T19:59:42.359Z,97649.72
2018-11-10T20:02:10.900Z,97652.55
2018-11-10T20:04:39.413Z,97650.91
2018-11-10T20:07:08.283Z,97650.62
2018-11-10T20:09:36.770Z,97634.93
2018-11-10T20:12:05.753Z,97631.13
2018-11-10T20:14:34.249Z,97636.22
2018-11-10T20:17:02.798Z,97637.59
2018-11-10T20:19:31.366Z,97632.85
2018-11-10T20:21:59.856Z,97629.02
2018-11-10T20:24:28.505Z,97635.03
2018-11-10T20:26:57.010Z,97631.17
2018-11-10T20:29:25.536Z,97632.27
2018-11-10T20:31:54.054Z,97629.60
2018-11-10T20:34:22.558Z,97629.60
2018-11-10T20:36:51.060Z,97627.33
2018-11-10T20:39:19.567Z,97628.43
2018-11-10T20:41:48.184Z,97637.70
2018-11-10T20:44:16.664Z,97640.56
2018-11-10T20:46:45.183Z,97640.56
2018-11-10T20:49:13.675Z,97636.88
2018-11-10T20:51:42.163Z,97639.03
2018-11-10T20:54:10.668Z,97628.94
2018-11-10T20:56:39.163Z,97637.03
2018-11-10T20:59:07.665Z,97633.00
2018-11-10T21:01:36.204Z,97648.13
2018-11-10T21:04:04.725Z,97651.25
2018-11-10T21:06:33.239Z,97644.29
2018-11-10T21:09:01.735Z,97659.66
2018-11-10T21:11:30.250Z,97656.73
2018-11-10T21:13:58.729Z,97657.47
2018-11-10T21:16:27.257Z,97653.03
2018-11-10T21:18:55.733Z,97659.58
2018-11-10T21:21:24.261Z,97655.77
2018-11-10T21:23:52.742Z,97659.77
2018-11-10T21:26:21.241Z,97658.67
2018-11-10T21:28:49.800Z,97665.97
2018-11-10T21:31:18.313Z,97668.72
2018-11-10T21:33:46.984Z,97667.62
2018-11-10T21:36:15.362Z,97665.02
2018-11-10T21:38:43.829Z,97676.05
2018-11-10T21:41:12.498Z,97675.45
2018-11-10T21:43:41.032Z,97676.70
2018-11-10T21:46:09.582Z,97672.34
2018-11-10T21:48:38.071Z,97665.33
2018-11-10T21:51:06.738Z,97657.27
2018-11-10T21:53:35.246Z,97663.27
2018-11-10T21:57:33.861Z,97668.36
2018-11-10T22:00:02.336Z,97666.74
2018-11-10T22:02:30.863Z,97671.46
2018-11-10T22:04:59.357Z,97675.05
2018-11-10T22:07:27.882Z,97674.22
2018-11-10T22:09:56.389Z,97670.45
2018-11-10T22:12:24.905Z,97674.17
2018-11-10T22:14:53.415Z,97672.98
2018-11-10T22:17:21.939Z,97675.13
2018-11-10T22:19:50.534Z,97679.25
2018-11-10T22:22:19.064Z,97679.99
2018-11-10T22:24:47.548Z,97686.19
2018-11-10T22:27:16.048Z,97676.36
2018-11-10T22:29:44.549Z,97675.53
2018-11-10T22:32:13.102Z,97676.14
2018-11-10T22:34:41.730Z,97674.58
2018-11-10T22:37:10.277Z,97684.21
2018-11-10T22:39:38.756Z,97680.59
2018-11-10T22:42:07.693Z,97677.52
2018-11-10T22:44:36.200Z,97678.25
2018-11-10T22:47:05.115Z,97663.81
2018-11-10T22:49:33.671Z,97657.30
2018-11-10T22:52:02.206Z,97660.19
2018-11-10T22:54:30.698Z,97656.05
2018-11-10T22:56:59.232Z,97656.05
2018-11-10T22:59:27.680Z,97659.22
2018-11-10T23:01:56.179Z,97659.81
2018-11-10T23:04:24.747Z,97653.03
2018-11-10T23:06:53.229Z,97650.50
2018-11-10T23:09:21.767Z,97655.67
2018-11-10T23:11:50.255Z,97649.84
2018-11-10T23:14:18.786Z,97651.95
2018-11-10T23:16:47.277Z,97638.66
2018-11-10T23:19:15.912Z,97639.38
2018-11-10T23:21:44.412Z,97633.19
2018-11-10T23:24:12.938Z,97639.25
2018-11-10T23:26:41.434Z,97645.94
2018-11-10T23:29:09.951Z,97638.37
2018-11-10T23:31:38.433Z,97647.31
2018-11-10T23:34:06.927Z,97641.31
2018-11-10T23:36:35.393Z,97636.31
2018-11-10T23:39:04.353Z,97644.42
2018-11-10T23:41:32.812Z,97652.85
2018-11-10T23:44:01.312Z,97645.97
2018-11-10T23:46:29.790Z,97650.33
2018-11-10T23:48:58.290Z,97659.45
2018-11-10T23:51:26.777Z,97664.27
2018-11-10T23:53:55.353Z,97664.27
2018-11-10T23:56:23.800Z,97660.73
2018-11-10T23:58:52.345Z,97655.64
